Mekhanik Cherevko — URAG — position and weather

sailwx.info

Track history (hours):
 
Tides and Currents Weather Stations Pressure Air Temp Water Temp Dewpoint Dewpoint Depression Visibility Wind Speed Wind Dir Waves Ship Positions

Mekhanik Cherevko

Last reported at 2017-Nov-19 10:29 UTC. Time now 2017-Nov-23 11:08 UTC.
Position N 48°03' E 035°06'.

Length 98 m; draft 3.9 m.

Type: Cargo ship. MMSI: 272308000.

Date/timePositionNaut miles runAvg speedWind from/ knotsBaromVisibWave heightAir tempDewpointWater temp
2017-Nov-19 10:29N 48°03' E 035°06'4 8.6
2017-Nov-19 10:00N 47°60' E 035°08'5 9.4
2017-Nov-19 09:30N 47°55' E 035°07'3 6.3
2017-Nov-19 09:00N 47°52' E 035°05'0 0.0
2017-Nov-19 08:29N 47°52' E 035°05'0 0.5
2017-Nov-19 08:00N 47°52' E 035°05'0 0.0
2017-Nov-19 07:30N 47°52' E 035°05'2 3.8
2017-Nov-19 07:00N 47°50' E 035°06'4 7.1
2017-Nov-19 06:30N 47°47' E 035°10'4 7.6
2017-Nov-19 06:00N 47°43' E 035°09'5 7.8
2017-Nov-19 05:25N 47°39' E 035°07'4 6.4
2017-Nov-19 04:49N 47°36' E 035°03'0 0.0
2017-Nov-18 23:46N 47°36' E 035°03'131 6.4
2017-Nov-18 03:25N 46°33' E 032°14'3 7.2
2017-Nov-18 02:57N 46°32' E 032°09'3 7.0
2017-Nov-18 02:29N 46°32' E 032°05'4 7.9
2017-Nov-18 02:00N 46°33' E 031°60'4 8.5
2017-Nov-18 01:30N 46°34' E 031°54'5 8.5
2017-Nov-18 00:58N 46°36' E 031°47'34 8.4
2017-Nov-17 20:57N 46°33' E 030°58'4 8.7
2017-Nov-17 20:30N 46°32' E 030°53'4 8.6
2017-Nov-17 20:00N 46°30' E 030°47'1 2.8
2017-Nov-17 19:29N 46°29' E 030°45'0 0.0
2017-Nov-17 18:59N 46°29' E 030°45'0 0.0
2017-Nov-17 18:29N 46°29' E 030°45'0 0.0
2017-Nov-17 17:59N 46°29' E 030°45'0 0.0
2017-Nov-17 17:26N 46°29' E 030°45'0 0.0
2017-Nov-17 16:59N 46°29' E 030°45'0 0.0
2017-Nov-17 16:23N 46°29' E 030°45'0 0.0
2017-Nov-17 15:59N 46°29' E 030°45'0 0.0
2017-Nov-17 15:23N 46°29' E 030°45'0 0.0
2017-Nov-17 14:38N 46°29' E 030°45'0 0.0
2017-Nov-17 14:30N 46°29' E 030°45'1 2.6
2017-Nov-17 14:00N 46°30' E 030°44'0 0.5
2017-Nov-17 13:30N 46°30' E 030°44'0 0.0
2017-Nov-17 13:00N 46°30' E 030°44'0 0.0
2017-Nov-17 12:30N 46°30' E 030°44'0 0.0
2017-Nov-17 12:00N 46°30' E 030°44'0 0.0
2017-Nov-17 11:29N 46°30' E 030°44'0 0.0
2017-Nov-17 11:00N 46°30' E 030°44'0 0.0
2017-Nov-17 10:30N 46°30' E 030°44'1 1.8
2017-Nov-17 10:01N 46°30' E 030°45'1 1.7
2017-Nov-17 09:30N 46°29' E 030°45'0 0.0
2017-Nov-17 09:00N 46°29' E 030°45'0 0.0
2017-Nov-17 08:30N 46°29' E 030°45'0 0.0
2017-Nov-17 08:00N 46°29' E 030°45'0 0.0
2017-Nov-17 07:30N 46°29' E 030°45'0 0.0
2017-Nov-17 07:00N 46°29' E 030°45'0 0.0
2017-Nov-17 06:30N 46°29' E 030°45'0 0.0
2017-Nov-17 05:59N 46°29' E 030°45'0 0.0
2017-Nov-17 05:30N 46°29' E 030°45'0 0.0
2017-Nov-17 05:00N 46°29' E 030°45'0 0.0
2017-Nov-17 04:30N 46°29' E 030°45'0 0.0
2017-Nov-17 04:00N 46°29' E 030°45'0 0.0
2017-Nov-17 03:30N 46°29' E 030°45'0 0.0
2017-Nov-17 03:00N 46°29' E 030°45'0 0.0
2017-Nov-17 02:30N 46°29' E 030°45'0 0.0
2017-Nov-17 02:00N 46°29' E 030°45'0 0.0
2017-Nov-17 01:30N 46°29' E 030°45'0 0.0
2017-Nov-17 01:00N 46°29' E 030°45'0 0.0
2017-Nov-17 00:30N 46°29' E 030°45'0 0.0
2017-Nov-17 00:00N 46°29' E 030°45'0 0.0
2017-Nov-16 23:30N 46°29' E 030°45'2 3.1
2017-Nov-16 23:00N 46°30' E 030°44'0 0.2
2017-Nov-16 22:25N 46°30' E 030°44'0 0.0
2017-Nov-16 21:46N 46°30' E 030°44'0 0.0
2017-Nov-16 21:25N 46°30' E 030°44'0 0.0
2017-Nov-16 20:58N 46°30' E 030°44'0 0.0
2017-Nov-16 20:30N 46°30' E 030°44'2 3.5
2017-Nov-16 20:00N 46°30' E 030°46'38 8.5
2017-Nov-16 15:36N 46°36' E 031°40'1 8.7
2017-Nov-16 15:27N 46°36' E 031°42'4 8.6
2017-Nov-16 15:00N 46°36' E 031°48'4 8.3
2017-Nov-16 14:30N 46°34' E 031°54'4 8.4
2017-Nov-16 14:00N 46°33' E 031°60'5 8.4
2017-Nov-16 13:27N 46°32' E 032°06'136 5.2
2017-Nov-15 11:30N 47°35' E 035°02'4 8.3
2017-Nov-15 11:00N 47°38' E 035°06'4 8.7
2017-Nov-15 10:30N 47°42' E 035°08'4 8.0
2017-Nov-15 10:00N 47°46' E 035°09'2 2.5
2017-Nov-15 09:10N 47°48' E 035°10'0 0.0
2017-Nov-15 08:58N 47°48' E 035°10'0 0.0
2017-Nov-15 08:28N 47°48' E 035°10'0 0.0
2017-Nov-15 07:58N 47°48' E 035°10'0 0.0
2017-Nov-15 07:28N 47°48' E 035°10'0 0.1
2017-Nov-15 07:00N 47°48' E 035°10'4 7.5
2017-Nov-15 06:30N 47°51' E 035°05'1 2.2
2017-Nov-15 05:55N 47°52' E 035°05'0 0.4
2017-Nov-15 05:30N 47°52' E 035°06'1 1.6
2017-Nov-15 04:55N 47°53' E 035°06'0 0.0
2017-Nov-15 04:25N 47°53' E 035°06'0 0.0
2017-Nov-15 03:55N 47°53' E 035°06'0 0.0
2017-Nov-15 03:25N 47°53' E 035°06'0 0.0
2017-Nov-15 02:55N 47°53' E 035°06'0 0.0
2017-Nov-15 02:25N 47°53' E 035°06'0 0.0
2017-Nov-15 01:55N 47°53' E 035°06'0 0.0
2017-Nov-15 01:25N 47°53' E 035°06'0 0.0
2017-Nov-15 00:55N 47°53' E 035°06'0 0.0
2017-Nov-15 00:25N 47°53' E 035°06'0 0.0
2017-Nov-14 23:55N 47°53' E 035°06'0 0.0
2017-Nov-14 23:25N 47°53' E 035°06'0 0.0
2017-Nov-14 22:55N 47°53' E 035°06'0 0.0
2017-Nov-14 22:25N 47°53' E 035°06'0 0.0
2017-Nov-14 21:55N 47°53' E 035°06'0 0.0
2017-Nov-14 21:25N 47°53' E 035°06'0 0.0
2017-Nov-14 20:55N 47°53' E 035°06'0 0.0
2017-Nov-14 20:25N 47°53' E 035°06'0 0.0
2017-Nov-14 19:55N 47°53' E 035°06'0 0.0
2017-Nov-14 19:25N 47°53' E 035°06'0 0.2
2017-Nov-14 18:59N 47°53' E 035°06'3 5.5
2017-Nov-14 18:29N 47°56' E 035°07'  
2017-Nov-10 14:37N 48°03' E 035°06'1 9.0
2017-Nov-10 14:29N 48°02' E 035°07'4 8.3
2017-Nov-10 14:00N 47°58' E 035°07'5 9.1
2017-Nov-10 13:30N 47°54' E 035°06'2 4.3
2017-Nov-10 13:00N 47°52' E 035°05'0 0.5
2017-Nov-10 12:30N 47°52' E 035°05'2 3.1
2017-Nov-10 12:00N 47°50' E 035°06'4 7.5
2017-Nov-10 11:30N 47°47' E 035°10'4 7.6
2017-Nov-10 11:00N 47°44' E 035°10'  
Track history (hours):
 
Tides and Currents Weather Stations Pressure Air Temp Water Temp Dewpoint Dewpoint Depression Visibility Wind Speed Wind Dir Waves Ship Positions

Mekhanik Cherevko

Last reported at 2017-Nov-19 10:29 UTC. Time now 2017-Nov-23 11:08 UTC.
Position N 48°03' E 035°06'.

Length 98 m; draft 3.9 m.

Type: Cargo ship. MMSI: 272308000.

Date/timePositionNaut miles runAvg speedWind from/ knotsBaromVisibWave heightAir tempDewpointWater temp
2017-Nov-19 10:29N 48°03' E 035°06'4 8.6
2017-Nov-19 10:00N 47°60' E 035°08'5 9.4
2017-Nov-19 09:30N 47°55' E 035°07'3 6.3
2017-Nov-19 09:00N 47°52' E 035°05'0 0.0
2017-Nov-19 08:29N 47°52' E 035°05'0 0.5
2017-Nov-19 08:00N 47°52' E 035°05'0 0.0
2017-Nov-19 07:30N 47°52' E 035°05'2 3.8
2017-Nov-19 07:00N 47°50' E 035°06'4 7.1
2017-Nov-19 06:30N 47°47' E 035°10'4 7.6
2017-Nov-19 06:00N 47°43' E 035°09'5 7.8
2017-Nov-19 05:25N 47°39' E 035°07'4 6.4
2017-Nov-19 04:49N 47°36' E 035°03'0 0.0
2017-Nov-18 23:46N 47°36' E 035°03'131 6.4
2017-Nov-18 03:25N 46°33' E 032°14'3 7.2
2017-Nov-18 02:57N 46°32' E 032°09'3 7.0
2017-Nov-18 02:29N 46°32' E 032°05'4 7.9
2017-Nov-18 02:00N 46°33' E 031°60'4 8.5
2017-Nov-18 01:30N 46°34' E 031°54'5 8.5
2017-Nov-18 00:58N 46°36' E 031°47'34 8.4
2017-Nov-17 20:57N 46°33' E 030°58'4 8.7
2017-Nov-17 20:30N 46°32' E 030°53'4 8.6
2017-Nov-17 20:00N 46°30' E 030°47'1 2.8
2017-Nov-17 19:29N 46°29' E 030°45'0 0.0
2017-Nov-17 18:59N 46°29' E 030°45'0 0.0
2017-Nov-17 18:29N 46°29' E 030°45'0 0.0
2017-Nov-17 17:59N 46°29' E 030°45'0 0.0
2017-Nov-17 17:26N 46°29' E 030°45'0 0.0
2017-Nov-17 16:59N 46°29' E 030°45'0 0.0
2017-Nov-17 16:23N 46°29' E 030°45'0 0.0
2017-Nov-17 15:59N 46°29' E 030°45'0 0.0
2017-Nov-17 15:23N 46°29' E 030°45'0 0.0
2017-Nov-17 14:38N 46°29' E 030°45'0 0.0
2017-Nov-17 14:30N 46°29' E 030°45'1 2.6
2017-Nov-17 14:00N 46°30' E 030°44'0 0.5
2017-Nov-17 13:30N 46°30' E 030°44'0 0.0
2017-Nov-17 13:00N 46°30' E 030°44'0 0.0
2017-Nov-17 12:30N 46°30' E 030°44'0 0.0
2017-Nov-17 12:00N 46°30' E 030°44'0 0.0
2017-Nov-17 11:29N 46°30' E 030°44'0 0.0
2017-Nov-17 11:00N 46°30' E 030°44'0 0.0
2017-Nov-17 10:30N 46°30' E 030°44'1 1.8
2017-Nov-17 10:01N 46°30' E 030°45'1 1.7
2017-Nov-17 09:30N 46°29' E 030°45'0 0.0
2017-Nov-17 09:00N 46°29' E 030°45'0 0.0
2017-Nov-17 08:30N 46°29' E 030°45'0 0.0
2017-Nov-17 08:00N 46°29' E 030°45'0 0.0
2017-Nov-17 07:30N 46°29' E 030°45'0 0.0
2017-Nov-17 07:00N 46°29' E 030°45'0 0.0
2017-Nov-17 06:30N 46°29' E 030°45'0 0.0
2017-Nov-17 05:59N 46°29' E 030°45'0 0.0
2017-Nov-17 05:30N 46°29' E 030°45'0 0.0
2017-Nov-17 05:00N 46°29' E 030°45'0 0.0
2017-Nov-17 04:30N 46°29' E 030°45'0 0.0
2017-Nov-17 04:00N 46°29' E 030°45'0 0.0
2017-Nov-17 03:30N 46°29' E 030°45'0 0.0
2017-Nov-17 03:00N 46°29' E 030°45'0 0.0
2017-Nov-17 02:30N 46°29' E 030°45'0 0.0
2017-Nov-17 02:00N 46°29' E 030°45'0 0.0
2017-Nov-17 01:30N 46°29' E 030°45'0 0.0
2017-Nov-17 01:00N 46°29' E 030°45'0 0.0
2017-Nov-17 00:30N 46°29' E 030°45'0 0.0
2017-Nov-17 00:00N 46°29' E 030°45'0 0.0
2017-Nov-16 23:30N 46°29' E 030°45'2 3.1
2017-Nov-16 23:00N 46°30' E 030°44'0 0.2
2017-Nov-16 22:25N 46°30' E 030°44'0 0.0
2017-Nov-16 21:46N 46°30' E 030°44'0 0.0
2017-Nov-16 21:25N 46°30' E 030°44'0 0.0
2017-Nov-16 20:58N 46°30' E 030°44'0 0.0
2017-Nov-16 20:30N 46°30' E 030°44'2 3.5
2017-Nov-16 20:00N 46°30' E 030°46'38 8.5
2017-Nov-16 15:36N 46°36' E 031°40'1 8.7
2017-Nov-16 15:27N 46°36' E 031°42'4 8.6
2017-Nov-16 15:00N 46°36' E 031°48'4 8.3
2017-Nov-16 14:30N 46°34' E 031°54'4 8.4
2017-Nov-16 14:00N 46°33' E 031°60'5 8.4
2017-Nov-16 13:27N 46°32' E 032°06'136 5.2
2017-Nov-15 11:30N 47°35' E 035°02'4 8.3
2017-Nov-15 11:00N 47°38' E 035°06'4 8.7
2017-Nov-15 10:30N 47°42' E 035°08'4 8.0
2017-Nov-15 10:00N 47°46' E 035°09'2 2.5
2017-Nov-15 09:10N 47°48' E 035°10'0 0.0
2017-Nov-15 08:58N 47°48' E 035°10'0 0.0
2017-Nov-15 08:28N 47°48' E 035°10'0 0.0
2017-Nov-15 07:58N 47°48' E 035°10'0 0.0
2017-Nov-15 07:28N 47°48' E 035°10'0 0.1
2017-Nov-15 07:00N 47°48' E 035°10'4 7.5
2017-Nov-15 06:30N 47°51' E 035°05'1 2.2
2017-Nov-15 05:55N 47°52' E 035°05'0 0.4
2017-Nov-15 05:30N 47°52' E 035°06'1 1.6
2017-Nov-15 04:55N 47°53' E 035°06'0 0.0
2017-Nov-15 04:25N 47°53' E 035°06'0 0.0
2017-Nov-15 03:55N 47°53' E 035°06'0 0.0
2017-Nov-15 03:25N 47°53' E 035°06'0 0.0
2017-Nov-15 02:55N 47°53' E 035°06'0 0.0
2017-Nov-15 02:25N 47°53' E 035°06'0 0.0
2017-Nov-15 01:55N 47°53' E 035°06'0 0.0
2017-Nov-15 01:25N 47°53' E 035°06'0 0.0
2017-Nov-15 00:55N 47°53' E 035°06'0 0.0
2017-Nov-15 00:25N 47°53' E 035°06'0 0.0
2017-Nov-14 23:55N 47°53' E 035°06'0 0.0
2017-Nov-14 23:25N 47°53' E 035°06'0 0.0
2017-Nov-14 22:55N 47°53' E 035°06'0 0.0
2017-Nov-14 22:25N 47°53' E 035°06'0 0.0
2017-Nov-14 21:55N 47°53' E 035°06'0 0.0
2017-Nov-14 21:25N 47°53' E 035°06'0 0.0
2017-Nov-14 20:55N 47°53' E 035°06'0 0.0
2017-Nov-14 20:25N 47°53' E 035°06'0 0.0
2017-Nov-14 19:55N 47°53' E 035°06'0 0.0
2017-Nov-14 19:25N 47°53' E 035°06'0 0.2
2017-Nov-14 18:59N 47°53' E 035°06'3 5.5
2017-Nov-14 18:29N 47°56' E 035°07'  
2017-Nov-10 14:37N 48°03' E 035°06'1 9.0
2017-Nov-10 14:29N 48°02' E 035°07'4 8.3
2017-Nov-10 14:00N 47°58' E 035°07'5 9.1
2017-Nov-10 13:30N 47°54' E 035°06'2 4.3
2017-Nov-10 13:00N 47°52' E 035°05'0 0.5
2017-Nov-10 12:30N 47°52' E 035°05'2 3.1
2017-Nov-10 12:00N 47°50' E 035°06'4 7.5
2017-Nov-10 11:30N 47°47' E 035°10'4 7.6
2017-Nov-10 11:00N 47°44' E 035°10'  

Dump ship's entire track history